Time;durP1;ratioP1;P1;durP2;ratioP2;P2;SDS_P1;SDS_P2;PMS_P1;PMS_P2;Temp;Humidity;BMP_temperature;BMP_pressure;BME280_temperature;BME280_humidity;BME280_pressure;Samples;Min_cycle;Max_cycle;Signal;HPM_P1;HPM_P2
2023/03/11 00:00:12;;;;;;;4.75;2.22;;;;;;;-2.75;56.10;94195.16;4978312;28;20111;-71
2023/03/11 00:02:40;;;;;;;2.85;2.10;;;;;;;-2.53;57.17;94188.13;4978623;28;20131;-71
2023/03/11 00:05:06;;;;;;;4.03;2.10;;;;;;;-2.10;54.25;94187.94;4978521;28;20607;-71
2023/03/11 00:07:31;;;;;;;1.83;1.73;;;;;;;-2.43;55.71;94192.53;4978393;28;20111;-71
2023/03/11 00:09:58;;;;;;;3.47;2.40;;;;;;;-2.85;59.72;94204.69;4976703;28;20122;-71
2023/03/11 00:12:23;;;;;;;2.63;2.15;;;;;;;-3.16;61.66;94215.09;4977117;28;20082;-71
2023/03/11 00:14:48;;;;;;;3.50;2.67;;;;;;;-2.65;60.12;94215.22;4977886;28;20079;-71
2023/03/11 00:17:15;;;;;;;6.95;2.17;;;;;;;-2.65;55.01;94212.63;4979004;28;20506;-71
2023/03/11 00:19:40;;;;;;;2.38;1.88;;;;;;;-2.53;56.44;94229.81;4977331;28;20085;-71
2023/03/11 00:22:06;;;;;;;2.17;1.98;;;;;;;-2.75;59.65;94236.03;4979152;28;20078;-71
2023/03/11 00:24:32;;;;;;;2.63;1.75;;;;;;;-2.08;55.60;94237.38;4972637;28;20066;-71
2023/03/11 00:26:58;;;;;;;4.28;2.28;;;;;;;-2.65;59.29;94231.66;4941179;28;20075;-71
2023/03/11 00:29:23;;;;;;;3.33;2.22;;;;;;;-2.91;58.01;94239.91;4977944;28;20061;-71
2023/03/11 00:31:48;;;;;;;4.78;2.47;;;;;;;-3.11;58.83;94232.91;4977877;28;20076;-71
2023/03/11 00:34:14;;;;;;;3.53;2.20;;;;;;;-2.69;54.91;94265.94;4977790;28;20092;-71
2023/03/11 00:36:39;;;;;;;3.50;2.22;;;;;;;-2.90;55.21;94262.41;4978154;28;20080;-71
2023/03/11 00:39:09;;;;;;;4.13;2.30;;;;;;;-2.77;53.21;94257.00;4975953;28;20467;-71
2023/03/11 00:41:36;;;;;;;6.50;2.80;;;;;;;-2.90;57.60;94253.75;4978323;28;20102;-71
2023/03/11 00:44:01;;;;;;;5.60;2.70;;;;;;;-2.96;57.34;94254.28;4977371;28;20713;-71
2023/03/11 00:46:28;;;;;;;4.95;2.15;;;;;;;-2.29;53.17;94259.13;4977071;28;20086;-71
2023/03/11 00:48:54;;;;;;;4.05;2.30;;;;;;;-3.01;54.88;94265.06;4972484;28;20054;-71
2023/03/11 00:51:19;;;;;;;3.75;2.50;;;;;;;-3.01;56.44;94270.28;4977785;28;20085;-71
2023/03/11 00:53:44;;;;;;;5.97;2.53;;;;;;;-2.83;57.79;94261.88;4978314;28;20061;-71
2023/03/11 00:56:11;;;;;;;5.88;2.75;;;;;;;-2.73;57.77;94275.78;4980410;28;20065;-71
2023/03/11 00:58:37;;;;;;;2.63;2.20;;;;;;;-2.80;57.06;94272.88;4981621;28;20474;-71
2023/03/11 01:01:16;;;;;;;3.10;2.30;;;;;;;-2.35;52.86;94273.50;4981390;28;20453;-71
2023/03/11 01:03:41;;;;;;;3.00;2.20;;;;;;;-3.06;56.81;94268.03;4981333;28;20078;-71
2023/03/11 01:06:07;;;;;;;5.32;2.72;;;;;;;-2.80;56.84;94262.47;4981186;28;20105;-71
2023/03/11 01:08:32;;;;;;;2.92;2.22;;;;;;;-2.02;52.67;94271.56;4981424;28;20043;-72
2023/03/11 01:10:58;;;;;;;4.82;2.30;;;;;;;-2.85;53.52;94280.22;4980191;28;20077;-71
2023/03/11 01:13:24;;;;;;;4.95;2.33;;;;;;;-2.24;53.45;94283.84;4980152;28;20061;-71
2023/03/11 01:15:49;;;;;;;6.15;2.40;;;;;;;-2.66;56.56;94270.88;4979502;28;20066;-71
2023/03/11 01:18:15;;;;;;;4.70;2.28;;;;;;;-2.18;55.44;94266.00;4978661;28;20150;-71
2023/03/11 01:20:40;;;;;;;3.50;2.35;;;;;;;-2.20;52.55;94267.94;4981517;28;20064;-71
2023/03/11 01:23:06;;;;;;;7.75;2.92;;;;;;;-2.34;57.34;94272.56;4978936;28;20454;-71
2023/03/11 01:25:31;;;;;;;4.85;2.28;;;;;;;-2.18;54.07;94260.78;4981569;28;20526;-71
2023/03/11 01:27:57;;;;;;;4.40;2.22;;;;;;;-1.73;53.65;94270.81;4978850;28;20079;-71
2023/03/11 01:30:23;;;;;;;6.10;2.42;;;;;;;-1.72;51.45;94280.28;4979537;28;20081;-71
2023/03/11 01:32:49;;;;;;;5.88;2.67;;;;;;;-1.80;51.97;94274.91;4980194;28;20371;-71
2023/03/11 01:35:16;;;;;;;6.28;2.20;;;;;;;-1.97;51.74;94276.38;4979148;28;20418;-71
2023/03/11 01:37:41;;;;;;;4.30;2.58;;;;;;;-2.78;53.32;94288.38;4981093;28;20610;-71
2023/03/11 01:40:09;;;;;;;2.83;2.30;;;;;;;-2.45;54.90;94285.69;4981161;28;20066;-71
2023/03/11 01:42:35;;;;;;;9.07;2.47;;;;;;;-2.48;53.04;94297.19;4979479;28;20597;-71
2023/03/11 01:45:01;;;;;;;6.65;2.60;;;;;;;-2.70;55.19;94301.59;4981186;28;20064;-71
2023/03/11 01:47:37;;;;;;;6.55;2.33;;;;;;;-1.87;51.81;94292.88;4980287;28;20075;-71
2023/03/11 01:50:04;;;;;;;4.50;2.55;;;;;;;-2.46;52.89;94300.50;4978709;28;20612;-71
2023/03/11 01:52:29;;;;;;;3.70;2.40;;;;;;;-2.42;52.54;94304.50;4979610;28;20058;-71
2023/03/11 01:54:54;;;;;;;3.78;2.40;;;;;;;-2.21;54.32;94303.63;4980712;28;20117;-71
2023/03/11 01:57:20;;;;;;;4.50;2.42;;;;;;;-2.17;56.46;94305.00;4981011;28;20436;-71
2023/03/11 01:59:50;;;;;;;3.60;2.40;;;;;;;-2.37;55.07;94315.34;4980403;28;20083;-71
2023/03/11 02:02:22;;;;;;;4.00;2.47;;;;;;;-1.93;51.59;94321.31;4968981;28;20194;-72
2023/03/11 02:04:47;;;;;;;4.57;2.85;;;;;;;-2.54;57.86;94311.53;4963560;28;20439;-72
2023/03/11 02:07:12;;;;;;;4.00;2.53;;;;;;;-2.22;58.96;94317.63;4980205;28;20107;-73
2023/03/11 02:09:38;;;;;;;4.40;3.00;;;;;;;-2.04;58.59;94320.44;4960847;28;20049;-69
2023/03/11 02:12:03;;;;;;;3.92;2.40;;;;;;;-1.80;53.19;94301.00;4980538;28;20064;-72
2023/03/11 02:14:29;;;;;;;6.75;2.40;;;;;;;-2.35;51.26;94317.81;4978310;28;20087;-72
2023/03/11 02:16:54;;;;;;;4.60;2.30;;;;;;;-1.81;52.45;94312.41;4962512;28;20301;-73
2023/03/11 02:19:31;;;;;;;4.72;2.40;;;;;;;-2.00;56.84;94321.81;4979829;28;20075;-72
2023/03/11 02:21:57;;;;;;;4.55;2.40;;;;;;;-1.90;54.91;94315.81;4980428;28;20152;-72
2023/03/11 02:24:22;;;;;;;2.88;2.20;;;;;;;-1.62;52.90;94322.06;4962605;28;20339;-72
2023/03/11 02:27:01;;;;;;;4.00;2.40;;;;;;;-1.33;50.89;94315.25;4980097;28;20479;-73
2023/03/11 02:29:27;;;;;;;4.32;2.40;;;;;;;-1.89;51.61;94338.34;4979727;28;20302;-73
2023/03/11 02:31:53;;;;;;;4.60;2.58;;;;;;;-2.28;55.90;94342.44;4962300;28;20113;-72
2023/03/11 02:34:29;;;;;;;3.50;2.55;;;;;;;-2.19;52.64;94340.81;4978179;28;20084;-72
2023/03/11 02:36:54;;;;;;;7.20;2.88;;;;;;;-2.39;55.72;94345.94;4967498;28;20071;-71
2023/03/11 02:39:30;;;;;;;5.05;2.80;;;;;;;-2.57;57.35;94324.84;4979652;28;20522;-72
2023/03/11 02:41:56;;;;;;;6.18;2.92;;;;;;;-2.65;62.36;94338.50;4979388;28;21097;-72
2023/03/11 02:44:21;;;;;;;6.90;3.42;;;;;;;-2.51;56.77;94347.78;4978386;28;20070;-73
2023/03/11 02:46:46;;;;;;;5.25;3.05;;;;;;;-2.43;60.60;94354.16;4962404;28;20090;-72
2023/03/11 02:49:12;;;;;;;5.97;3.00;;;;;;;-2.06;54.43;94361.47;4977009;28;20472;-72
2023/03/11 02:51:38;;;;;;;4.63;3.10;;;;;;;-1.88;52.48;94353.03;4977401;28;20586;-72
2023/03/11 02:54:03;;;;;;;7.45;3.40;;;;;;;-2.43;56.49;94361.97;4977804;28;20088;-72
2023/03/11 02:56:29;;;;;;;5.13;2.70;;;;;;;-2.26;57.16;94369.22;4977847;28;20451;-72
2023/03/11 02:58:54;;;;;;;5.57;3.20;;;;;;;-2.62;57.31;94372.16;4979070;28;20428;-72
2023/03/11 03:01:20;;;;;;;4.45;2.80;;;;;;;-1.80;53.87;94368.84;4978104;28;20146;-73
2023/03/11 03:03:45;;;;;;;6.55;2.70;;;;;;;-2.41;58.19;94370.50;4977728;28;20091;-72
2023/03/11 03:06:11;;;;;;;7.00;2.78;;;;;;;-1.96;51.20;94371.13;4979475;28;20443;-72
2023/03/11 03:08:36;;;;;;;7.68;3.03;;;;;;;-2.62;59.92;94372.16;4979598;28;20062;-72
2023/03/11 03:11:02;;;;;;;3.50;2.50;;;;;;;-2.17;54.93;94385.84;4977624;28;20162;-72
2023/03/11 03:13:28;;;;;;;6.40;2.60;;;;;;;-2.58;55.91;94383.13;4977818;28;20068;-73
2023/03/11 03:15:53;;;;;;;3.90;2.50;;;;;;;-2.66;59.04;94385.53;4979274;28;20084;-73
2023/03/11 03:18:19;;;;;;;3.53;2.22;;;;;;;-2.28;56.08;94388.53;4976407;28;20105;-72
2023/03/11 03:20:44;;;;;;;4.93;3.08;;;;;;;-2.58;63.36;94388.34;4979507;28;20519;-73
2023/03/11 03:23:09;;;;;;;5.78;2.85;;;;;;;-2.25;58.92;94388.28;4979105;28;20092;-73
2023/03/11 03:25:35;;;;;;;3.65;2.78;;;;;;;-2.36;63.26;94391.78;4979245;28;20627;-72
2023/03/11 03:28:00;;;;;;;6.50;2.85;;;;;;;-2.15;56.76;94397.00;4979113;28;20094;-73
2023/03/11 03:30:28;;;;;;;4.90;2.60;;;;;;;-2.10;61.89;94391.41;4979014;28;20090;-73
2023/03/11 03:32:53;;;;;;;3.58;2.67;;;;;;;-2.09;62.21;94392.19;4979121;28;20433;-72
2023/03/11 03:35:19;;;;;;;3.33;2.30;;;;;;;-2.17;60.89;94398.88;4978786;28;20106;-72
2023/03/11 03:37:44;;;;;;;5.47;2.45;;;;;;;-1.74;53.95;94397.03;4978306;28;20415;-72
2023/03/11 03:40:10;;;;;;;4.57;2.53;;;;;;;-2.07;58.64;94400.75;4979128;28;20059;-73
2023/03/11 03:42:36;;;;;;;4.18;2.78;;;;;;;-2.27;63.36;94404.03;4978899;28;20192;-72
2023/03/11 03:45:02;;;;;;;4.55;2.30;;;;;;;-1.91;58.93;94406.31;4977656;28;20402;-72
2023/03/11 03:47:27;;;;;;;5.10;2.70;;;;;;;-1.96;60.61;94407.66;4977799;28;20452;-72
2023/03/11 03:49:53;;;;;;;4.75;2.70;;;;;;;-1.96;59.33;94408.50;4977774;28;20060;-72
2023/03/11 03:52:18;;;;;;;7.22;2.72;;;;;;;-1.91;57.18;94408.91;4978819;28;20121;-72
2023/03/11 03:54:44;;;;;;;7.85;3.28;;;;;;;-2.10;58.32;94409.66;4979054;28;20076;-72
2023/03/11 03:57:09;;;;;;;10.10;2.90;;;;;;;-2.08;54.65;94410.34;4978667;28;20071;-72
2023/03/11 03:59:35;;;;;;;7.47;3.00;;;;;;;-2.29;62.16;94412.97;4977996;28;20092;-72
2023/03/11 04:02:00;;;;;;;5.00;2.83;;;;;;;-1.94;57.92;94424.81;4976421;28;20058;-72
2023/03/11 04:04:26;;;;;;;5.82;2.70;;;;;;;-1.68;52.40;94426.16;4978665;28;20485;-72
2023/03/11 04:06:51;;;;;;;5.32;2.65;;;;;;;-1.06;53.03;94418.25;4978764;28;20079;-72
2023/03/11 04:09:17;;;;;;;7.32;2.83;;;;;;;-1.54;52.66;94423.22;4978912;28;20050;-72
2023/03/11 04:11:42;;;;;;;5.43;2.97;;;;;;;-1.65;52.98;94425.91;4978356;28;20159;-72
2023/03/11 04:14:07;;;;;;;5.07;2.83;;;;;;;-1.37;52.46;94426.16;4978715;28;20080;-72
2023/03/11 04:16:33;;;;;;;6.57;3.17;;;;;;;-2.11;55.96;94436.66;4978065;28;20053;-72
2023/03/11 04:18:58;;;;;;;5.93;3.08;;;;;;;-2.13;51.70;94449.03;4977894;28;20471;-72
2023/03/11 04:21:24;;;;;;;10.25;3.38;;;;;;;-1.86;50.92;94450.28;4976987;28;20069;-72
2023/03/11 04:23:49;;;;;;;6.05;3.05;;;;;;;-2.12;51.19;94445.47;4978503;28;20089;-72
2023/03/11 04:26:14;;;;;;;10.93;3.60;;;;;;;-2.09;53.00;94440.00;4978016;28;20093;-72
2023/03/11 04:28:40;;;;;;;6.82;3.55;;;;;;;-2.19;54.93;94441.69;4977206;28;20058;-72
2023/03/11 04:31:05;;;;;;;10.98;3.53;;;;;;;-2.42;53.29;94444.44;4981690;28;20092;-72
2023/03/11 04:33:31;;;;;;;8.88;3.60;;;;;;;-2.60;57.04;94452.81;4982781;28;20662;-72
2023/03/11 04:35:56;;;;;;;7.68;3.30;;;;;;;-2.24;51.08;94455.94;4980734;28;20084;-72
2023/03/11 04:38:22;;;;;;;8.27;3.22;;;;;;;-1.76;49.13;94451.13;4981874;28;20183;-72
2023/03/11 04:40:47;;;;;;;13.65;3.92;;;;;;;-2.33;50.09;94446.28;4982475;28;20572;-72
2023/03/11 04:43:12;;;;;;;9.85;3.28;;;;;;;-1.78;48.43;94453.06;4981900;28;20101;-72
2023/03/11 04:45:41;;;;;;;10.23;3.80;;;;;;;-2.69;51.84;94463.97;4982124;28;20145;-72
2023/03/11 04:48:06;;;;;;;7.25;3.08;;;;;;;-2.82;60.18;94472.78;4980052;28;20168;-72
2023/03/11 04:50:32;;;;;;;6.65;3.30;;;;;;;-2.62;58.87;94465.97;4980108;28;20084;-72
2023/03/11 04:52:57;;;;;;;7.50;3.17;;;;;;;-2.59;59.89;94480.53;4980853;28;20060;-72
2023/03/11 04:55:23;;;;;;;13.77;3.80;;;;;;;-1.76;51.31;94472.00;4981693;28;20081;-72
2023/03/11 04:57:48;;;;;;;7.28;3.00;;;;;;;-2.26;57.91;94480.50;4964073;28;20060;-72
2023/03/11 05:00:14;;;;;;;10.77;3.83;;;;;;;-2.18;53.19;94474.66;4980190;28;20088;-72
2023/03/11 05:02:40;;;;;;;9.57;3.33;;;;;;;-2.38;55.29;94475.34;4954048;28;20109;-72
2023/03/11 05:05:06;;;;;;;9.43;3.65;;;;;;;-2.27;51.59;94469.25;4981518;28;20592;-72
2023/03/11 05:07:31;;;;;;;7.88;2.88;;;;;;;-2.48;57.60;94478.84;4981485;28;20162;-72
2023/03/11 05:09:57;;;;;;;8.18;3.10;;;;;;;-2.37;55.00;94491.81;4979484;28;20128;-72
2023/03/11 05:12:22;;;;;;;7.18;3.28;;;;;;;-2.86;60.38;94491.41;4979603;28;20094;-72
2023/03/11 05:14:48;;;;;;;7.85;3.35;;;;;;;-2.83;55.76;94489.38;4981129;28;20087;-72
2023/03/11 05:17:13;;;;;;;11.35;3.40;;;;;;;-2.52;57.97;94493.88;4980220;28;20047;-72
2023/03/11 05:19:39;;;;;;;7.68;3.70;;;;;;;-2.55;57.20;94494.97;4980900;28;20611;-72
2023/03/11 05:22:05;;;;;;;11.70;3.42;;;;;;;-2.42;51.11;94492.19;4980986;28;20159;-72
2023/03/11 05:24:30;;;;;;;7.82;3.58;;;;;;;-2.87;58.72;94498.38;4979841;28;20156;-72
2023/03/11 05:26:56;;;;;;;12.30;3.83;;;;;;;-2.71;57.64;94499.75;4981029;28;20110;-72
2023/03/11 05:29:21;;;;;;;7.53;3.50;;;;;;;-2.92;58.04;94505.75;4979721;28;20068;-72
2023/03/11 05:31:47;;;;;;;9.35;3.88;;;;;;;-2.81;60.28;94503.13;4979390;28;20109;-72
2023/03/11 05:34:13;;;;;;;4.13;3.00;;;;;;;-3.07;62.71;94502.56;4978945;28;20851;-72
2023/03/11 05:36:38;;;;;;;5.43;3.40;;;;;;;-2.97;65.16;94508.69;4981259;28;20083;-72
2023/03/11 05:39:04;;;;;;;11.00;3.50;;;;;;;-2.79;65.70;94509.00;4980522;28;20098;-72
2023/03/11 05:41:29;;;;;;;5.38;3.00;;;;;;;-2.69;63.77;94513.47;4979838;28;20315;-72
2023/03/11 05:43:54;;;;;;;6.28;3.53;;;;;;;-2.44;60.44;94516.72;4980848;28;20095;-72
2023/03/11 05:46:20;;;;;;;8.73;3.47;;;;;;;-2.78;65.05;94522.88;4980711;28;20093;-72
2023/03/11 05:48:45;;;;;;;5.80;3.00;;;;;;;-2.31;60.63;94520.00;4980434;28;20184;-72
2023/03/11 05:51:11;;;;;;;11.23;3.25;;;;;;;-2.71;63.06;94520.59;4980841;28;20091;-72
2023/03/11 05:53:40;;;;;;;7.97;4.10;;;;;;;-2.33;57.46;94526.28;4980922;28;20135;-72
2023/03/11 05:56:06;;;;;;;7.32;3.40;;;;;;;-2.77;62.44;94519.31;4980703;28;20116;-72
2023/03/11 05:58:31;;;;;;;12.57;3.40;;;;;;;-2.71;57.33;94516.22;4980310;28;20087;-72
2023/03/11 06:00:58;;;;;;;6.57;3.33;;;;;;;-2.95;63.89;94522.41;4980876;28;20062;-72
2023/03/11 06:03:24;;;;;;;5.97;3.20;;;;;;;-2.85;61.99;94521.72;4978889;28;20583;-72
2023/03/11 06:05:49;;;;;;;7.80;3.58;;;;;;;-2.78;61.40;94518.47;4980677;28;20070;-72
2023/03/11 06:08:15;;;;;;;5.57;3.35;;;;;;;-2.79;60.48;94522.03;4979132;28;20139;-72
2023/03/11 06:10:41;;;;;;;13.70;3.65;;;;;;;-2.91;58.39;94523.03;4979677;28;20090;-72
2023/03/11 06:13:06;;;;;;;7.55;3.30;;;;;;;-2.49;55.98;94519.72;4978624;28;20080;-72
2023/03/11 06:15:33;;;;;;;6.85;3.80;;;;;;;-1.80;50.50;94522.81;4979719;28;20086;-72
2023/03/11 06:18:00;;;;;;;7.75;3.53;;;;;;;-2.30;52.68;94529.50;4978030;28;20510;-72
2023/03/11 06:20:25;;;;;;;7.90;3.33;;;;;;;-2.84;54.89;94533.78;4980596;28;20074;-72
2023/03/11 06:22:51;;;;;;;11.40;3.75;;;;;;;-2.33;53.06;94529.72;4976904;28;20097;-72
2023/03/11 06:25:16;;;;;;;6.57;3.33;;;;;;;-1.93;51.09;94533.44;4980265;28;20079;-72
2023/03/11 06:27:43;;;;;;;8.52;3.80;;;;;;;-2.27;52.68;94538.84;4978519;28;20190;-72
2023/03/11 06:30:09;;;;;;;6.15;3.55;;;;;;;-2.22;55.42;94534.06;4980459;28;20399;-72
2023/03/11 06:32:35;;;;;;;12.75;4.63;;;;;;;-2.24;51.71;94543.81;4980278;28;20063;-72
2023/03/11 06:35:02;;;;;;;9.18;4.05;;;;;;;-1.99;51.36;94547.84;4980955;28;20083;-72
2023/03/11 06:37:27;;;;;;;7.88;3.47;;;;;;;-2.26;53.31;94549.16;4961229;28;20100;-72
2023/03/11 06:39:52;;;;;;;7.10;3.45;;;;;;;-1.98;52.33;94557.31;4979800;28;20087;-72
2023/03/11 06:42:18;;;;;;;6.32;3.67;;;;;;;-2.35;54.73;94562.91;4979035;28;20394;-72
2023/03/11 06:44:46;;;;;;;8.90;4.00;;;;;;;-2.12;52.02;94565.44;4980547;28;20092;-72
2023/03/11 06:47:12;;;;;;;11.30;3.92;;;;;;;-2.22;53.12;94574.94;4978915;28;20083;-72
2023/03/11 06:49:39;;;;;;;9.63;3.47;;;;;;;-2.37;51.03;94576.06;4962240;28;20072;-72
2023/03/11 06:52:05;;;;;;;6.75;3.42;;;;;;;-2.35;53.57;94575.94;4979252;28;20633;-72
2023/03/11 06:54:31;;;;;;;7.30;3.42;;;;;;;-2.40;54.77;94588.53;4978882;28;20086;-72
2023/03/11 06:56:56;;;;;;;7.25;3.58;;;;;;;-2.33;53.59;94579.28;4979663;28;20079;-72
2023/03/11 06:59:21;;;;;;;12.07;3.58;;;;;;;-2.55;58.35;94588.78;4978086;28;20120;-72
2023/03/11 07:01:47;;;;;;;13.07;3.55;;;;;;;-2.76;57.25;94594.75;4977514;28;20824;-72
2023/03/11 07:04:12;;;;;;;6.95;3.20;;;;;;;-2.76;62.30;94610.41;4979575;28;20260;-72
2023/03/11 07:06:38;;;;;;;8.85;3.53;;;;;;;-2.42;57.21;94606.06;4977742;28;20116;-72
2023/03/11 07:09:03;;;;;;;9.25;3.30;;;;;;;-2.37;62.46;94611.75;4977867;28;20062;-72
2023/03/11 07:11:29;;;;;;;5.82;3.00;;;;;;;-2.28;61.32;94612.78;4976650;28;20087;-72
2023/03/11 07:13:54;;;;;;;7.65;2.90;;;;;;;-2.01;61.15;94614.97;4979395;28;20068;-72
2023/03/11 07:16:21;;;;;;;7.57;3.28;;;;;;;-2.16;61.43;94611.81;4976447;28;20056;-72
2023/03/11 07:18:53;;;;;;;7.13;3.10;;;;;;;-2.02;60.29;94615.91;4977854;28;20566;-72
2023/03/11 07:21:21;;;;;;;5.32;2.80;;;;;;;-1.82;61.69;94628.28;4977255;28;20539;-72
2023/03/11 07:23:48;;;;;;;6.78;3.10;;;;;;;-1.89;58.84;94633.19;4976001;28;20162;-72
2023/03/11 07:26:13;;;;;;;9.68;3.20;;;;;;;-2.13;59.05;94644.66;4976792;28;20653;-72
2023/03/11 07:28:39;;;;;;;7.50;3.08;;;;;;;-1.88;60.09;94645.25;4979615;28;20063;-72
2023/03/11 07:31:08;;;;;;;5.28;2.70;;;;;;;-1.49;60.99;94650.78;4977421;28;20449;-72
2023/03/11 07:33:34;;;;;;;;;;;;;;;-1.38;58.54;94646.47;4978971;28;20106;-72
2023/03/11 07:36:04;;;;;;;6.23;2.77;;;;;;;-1.24;60.02;94656.59;4979589;28;19961;-72
2023/03/11 07:38:29;;;;;;;6.22;2.97;;;;;;;-1.43;57.59;94659.09;4976845;28;20088;-72
2023/03/11 07:40:58;;;;;;;6.15;2.60;;;;;;;-1.85;58.94;94663.28;4978997;28;20192;-72
2023/03/11 07:43:23;;;;;;;6.18;2.85;;;;;;;-1.47;56.41;94675.00;4978044;28;20568;-72
2023/03/11 07:45:50;;;;;;;7.30;2.72;;;;;;;-1.53;59.84;94672.88;4978653;28;20064;-72
2023/03/11 07:48:15;;;;;;;6.38;2.90;;;;;;;-1.05;55.43;94680.34;4978933;28;20052;-72
2023/03/11 07:50:41;;;;;;;5.70;2.70;;;;;;;-1.09;59.83;94688.44;4975689;28;20074;-72
2023/03/11 07:53:06;;;;;;;9.18;2.97;;;;;;;-1.16;58.46;94687.28;4977127;28;20047;-72
2023/03/11 07:55:32;;;;;;;9.20;2.88;;;;;;;-1.25;56.03;94696.72;4976702;28;20536;-72
2023/03/11 07:57:57;;;;;;;6.68;3.03;;;;;;;-1.02;57.03;94701.81;4978074;28;20055;-72
2023/03/11 08:00:23;;;;;;;4.90;2.53;;;;;;;-0.92;56.97;94704.53;4978334;28;20110;-72
2023/03/11 08:02:48;;;;;;;5.80;2.80;;;;;;;-0.63;54.10;94700.41;4978237;28;20492;-72
2023/03/11 08:05:14;;;;;;;7.20;2.95;;;;;;;-0.51;57.12;94704.59;4981065;28;20073;-72
2023/03/11 08:07:39;;;;;;;7.50;2.88;;;;;;;-0.48;55.84;94717.41;4982530;28;20090;-73
2023/03/11 08:10:05;;;;;;;9.05;2.70;;;;;;;-0.23;49.13;94715.28;4981813;28;20096;-72
2023/03/11 08:12:31;;;;;;;6.40;2.70;;;;;;;-0.69;49.16;94720.06;4981748;28;20391;-72
2023/03/11 08:14:56;;;;;;;5.82;2.45;;;;;;;-1.13;52.74;94728.00;4982489;28;20079;-72
2023/03/11 08:17:21;;;;;;;10.15;2.78;;;;;;;-1.37;54.44;94721.25;4982821;28;20065;-72
2023/03/11 08:19:48;;;;;;;9.77;3.40;;;;;;;-0.96;55.89;94719.63;4981745;28;20142;-72
2023/03/11 08:22:14;;;;;;;7.00;2.53;;;;;;;-1.02;51.70;94725.34;4995485;28;20166;-72
2023/03/11 08:24:39;;;;;;;9.05;2.97;;;;;;;-1.04;54.73;94727.25;4981909;28;20056;-73
2023/03/11 08:27:04;;;;;;;10.93;3.30;;;;;;;-0.77;50.23;94727.72;4981506;28;20134;-72
2023/03/11 08:29:30;;;;;;;8.32;3.90;;;;;;;-0.99;53.38;94735.53;4981002;28;20117;-72
2023/03/11 08:31:56;;;;;;;10.43;3.95;;;;;;;-0.97;49.35;94740.63;4963649;28;20419;-72
2023/03/11 08:34:21;;;;;;;10.45;4.45;;;;;;;-1.04;51.26;94736.88;4982787;28;20452;-73
2023/03/11 08:36:47;;;;;;;7.30;3.80;;;;;;;-0.51;51.48;94743.81;4979683;28;20076;-76
2023/03/11 08:39:12;;;;;;;11.75;3.10;;;;;;;0.06;47.70;94747.72;4981417;28;20090;-76
2023/03/11 08:41:37;;;;;;;8.07;3.67;;;;;;;0.24;47.97;94753.16;4982464;28;20581;-77
2023/03/11 08:44:03;;;;;;;14.07;3.10;;;;;;;-0.46;47.82;94751.28;4981828;28;20107;-76
2023/03/11 08:46:30;;;;;;;7.43;3.67;;;;;;;-0.71;52.98;94754.16;4980725;28;20094;-77
2023/03/11 08:48:56;;;;;;;6.80;2.92;;;;;;;-0.08;46.78;94748.94;4982003;28;20046;-76
2023/03/11 08:51:22;;;;;;;6.85;3.35;;;;;;;-0.53;46.31;94756.19;4980681;28;20085;-76
2023/03/11 08:53:48;;;;;;;8.20;4.57;;;;;;;-0.40;56.23;94756.00;4964351;28;20052;-75
2023/03/11 08:56:14;;;;;;;7.45;4.00;;;;;;;-0.49;53.62;94762.00;4982070;28;20159;-77
2023/03/11 08:58:39;;;;;;;8.82;3.95;;;;;;;-0.03;52.01;94757.22;4977012;28;20147;-77
2023/03/11 09:01:05;;;;;;;9.65;4.22;;;;;;;0.15;50.88;94764.44;4982264;28;20182;-76
2023/03/11 09:03:34;;;;;;;7.05;3.10;;;;;;;0.26;48.73;94751.22;4981337;28;20034;-77
2023/03/11 09:06:00;;;;;;;7.22;3.13;;;;;;;0.14;48.41;94757.56;4981654;28;20042;-77
2023/03/11 09:08:26;;;;;;;6.50;2.92;;;;;;;0.18;45.07;94757.13;4964331;28;20037;-77
2023/03/11 09:10:51;;;;;;;5.05;2.70;;;;;;;-0.00;46.13;94764.00;4979865;28;20057;-77
2023/03/11 09:13:17;;;;;;;6.47;3.10;;;;;;;0.17;48.72;94767.75;4981758;28;20033;-77
2023/03/11 09:15:42;;;;;;;6.22;3.45;;;;;;;0.70;45.45;94763.13;4979930;28;20046;-77
2023/03/11 09:18:13;;;;;;;9.25;2.88;;;;;;;0.27;46.97;94773.03;4980831;28;20076;-77
2023/03/11 09:20:38;;;;;;;4.30;2.13;;;;;;;0.32;41.88;94771.66;4980235;28;20137;-77
2023/03/11 09:23:04;;;;;;;3.13;1.55;;;;;;;0.26;41.02;94777.41;4981064;28;20079;-76
2023/03/11 09:25:30;;;;;;;4.13;2.30;;;;;;;0.06;47.85;94771.28;4981650;28;20157;-77
2023/03/11 09:27:55;;;;;;;5.22;2.25;;;;;;;0.12;48.04;94770.78;4981292;28;20068;-76
2023/03/11 09:30:20;;;;;;;8.68;3.00;;;;;;;0.44;49.57;94782.00;4981349;28;20078;-76
2023/03/11 09:32:46;;;;;;;4.97;3.00;;;;;;;0.51;51.75;94775.25;4980152;28;20336;-76
2023/03/11 09:35:11;;;;;;;6.20;3.13;;;;;;;0.68;49.07;94778.19;4982199;28;20076;-77
2023/03/11 09:37:37;;;;;;;3.70;2.08;;;;;;;1.03;47.88;94779.44;4979524;28;20054;-76
2023/03/11 09:40:02;;;;;;;6.10;2.53;;;;;;;1.42;46.99;94778.53;4980969;28;20089;-76
2023/03/11 09:42:33;;;;;;;5.32;2.50;;;;;;;0.86;47.11;94783.56;4980627;28;20477;-76
2023/03/11 09:45:14;;;;;;;8.40;2.50;;;;;;;1.25;49.74;94787.94;4978975;28;20060;-76
2023/03/11 09:47:42;;;;;;;4.65;1.63;;;;;;;1.37;35.92;94781.56;4966989;28;20046;-76
2023/03/11 09:50:15;;;;;;;5.40;3.10;;;;;;;1.39;50.42;94791.94;4979134;28;20038;-76
2023/03/11 09:52:52;;;;;;;6.50;2.47;;;;;;;1.47;49.73;94786.78;4979246;28;20066;-76
2023/03/11 09:55:52;;;;;;;5.45;3.00;;;;;;;1.92;50.53;94784.50;4980540;28;20043;-76
2023/03/11 09:58:21;;;;;;;3.00;2.13;;;;;;;2.01;42.02;94780.19;4977092;28;20034;-76
2023/03/11 10:00:47;;;;;;;;;;;;;;;2.22;41.81;94774.66;4981530;28;20038;-76
2023/03/11 10:03:26;;;;;;;5.63;2.80;;;;;;;2.31;47.53;94780.84;4995403;28;19960;-76
2023/03/11 10:05:53;;;;;;;6.28;3.13;;;;;;;2.38;42.48;94781.91;4965715;28;20884;-76
2023/03/11 10:08:25;;;;;;;7.68;2.10;;;;;;;2.19;47.48;94790.75;4963340;28;20521;-76
2023/03/11 10:11:29;;;;;;;8.20;3.75;;;;;;;2.52;47.45;94793.72;4962042;28;20578;-76
2023/03/11 10:14:33;;;;;;;6.03;2.25;;;;;;;2.12;45.54;94798.34;4980437;28;20040;-76
2023/03/11 10:17:16;;;;;;;2.88;2.00;;;;;;;1.95;47.01;94796.50;4976209;28;20068;-76
2023/03/11 10:20:00;;;;;;;5.55;2.38;;;;;;;1.96;47.79;94795.53;4977921;28;20069;-76
2023/03/11 10:22:50;;;;;;;7.63;2.75;;;;;;;2.27;47.74;94795.25;4980441;28;20408;-76
2023/03/11 10:25:17;;;;;;;5.70;2.15;;;;;;;1.91;43.03;94797.78;4980565;28;20052;-76
2023/03/11 10:27:47;;;;;;;6.07;2.63;;;;;;;1.99;46.42;94797.88;4962197;28;20508;-77
2023/03/11 10:30:34;;;;;;;3.15;1.60;;;;;;;1.85;44.36;94801.78;4979975;28;20046;-77
2023/03/11 10:33:12;;;;;;;5.13;2.53;;;;;;;2.45;45.85;94794.47;4963638;28;20052;-77
2023/03/11 10:35:41;;;;;;;5.05;2.28;;;;;;;2.30;42.26;94802.84;4979928;28;20038;-77
2023/03/11 10:38:10;;;;;;;4.47;2.83;;;;;;;2.16;47.45;94803.31;4961829;28;20057;-77
2023/03/11 10:40:38;;;;;;;4.13;1.63;;;;;;;2.86;42.78;94804.59;4977694;28;20081;-77
2023/03/11 10:43:17;;;;;;;3.40;1.90;;;;;;;3.59;41.82;94807.16;4977782;28;20034;-77
2023/03/11 10:45:44;;;;;;;10.05;2.80;;;;;;;3.71;45.76;94810.38;4963151;28;20136;-77
2023/03/11 10:48:14;;;;;;;4.15;2.60;;;;;;;4.21;49.16;94819.38;4978586;28;20045;-77
2023/03/11 10:50:46;;;;;;;2.90;1.67;;;;;;;3.89;43.29;94803.25;4978109;28;20041;-77
2023/03/11 10:53:17;;;;;;;5.22;2.30;;;;;;;3.22;39.52;94812.47;4961973;28;20140;-77
2023/03/11 10:55:51;;;;;;;3.00;1.27;;;;;;;3.13;37.17;94810.75;4962150;28;20045;-77
2023/03/11 10:58:19;;;;;;;2.50;1.40;;;;;;;2.85;42.09;94816.91;4977696;28;20034;-77
2023/03/11 11:00:44;;;;;;;4.07;1.77;;;;;;;2.52;37.68;94806.88;4978195;28;20514;-77
2023/03/11 11:03:20;;;;;;;2.78;1.55;;;;;;;2.10;40.87;94818.69;4979826;28;20070;-77
2023/03/11 11:05:55;;;;;;;4.65;1.92;;;;;;;1.80;40.86;94831.09;4977442;28;20462;-76
2023/03/11 11:08:20;;;;;;;5.78;2.50;;;;;;;2.48;46.17;94831.78;4963426;28;20034;-77
2023/03/11 11:10:54;;;;;;;2.53;1.20;;;;;;;2.54;36.90;94827.75;4976992;28;20131;-77
2023/03/11 11:13:22;;;;;;;3.75;2.13;;;;;;;2.55;42.22;94828.59;4977956;28;20041;-77
2023/03/11 11:15:53;;;;;;;5.30;2.53;;;;;;;2.74;42.06;94830.25;4961734;28;20046;-77
2023/03/11 11:18:35;;;;;;;1.67;1.38;;;;;;;2.55;43.04;94825.97;4978180;28;20183;-76
2023/03/11 11:21:05;;;;;;;3.67;1.27;;;;;;;3.00;39.64;94824.28;4977393;28;20042;-77
2023/03/11 11:23:34;;;;;;;3.50;1.63;;;;;;;2.71;39.45;94826.13;4961234;28;20098;-77
2023/03/11 11:26:03;;;;;;;3.13;1.60;;;;;;;2.59;39.92;94833.38;4977276;28;20030;-76
2023/03/11 11:28:29;;;;;;;4.18;2.15;;;;;;;2.30;45.45;94833.53;4943457;28;20133;-77
2023/03/11 11:31:04;;;;;;;2.92;2.00;;;;;;;2.69;46.25;94833.31;4977320;28;20068;-77
2023/03/11 11:33:38;;;;;;;5.82;2.08;;;;;;;2.68;46.52;94831.69;4979231;28;20089;-77